Time;durP1;ratioP1;P1;durP2;ratioP2;P2;SDS_P1;SDS_P2;PMS_P1;PMS_P2;Temp;Humidity;BMP_temperature;BMP_pressure;BME280_temperature;BME280_humidity;BME280_pressure;Samples;Min_cycle;Max_cycle;Signal;HPM_P1;HPM_P2
2023/07/06 00:00:51;;;;;;;8.10;2.40;;;15.10;99.90;;;;;;5073540;28;20051;-61
2023/07/06 00:03:16;;;;;;;8.13;2.17;;;15.10;99.90;;;;;;5068433;28;20477;-62
2023/07/06 00:05:45;;;;;;;4.32;2.10;;;15.10;99.90;;;;;;5061876;28;20039;-56
2023/07/06 00:08:16;;;;;;;7.15;2.03;;;15.10;99.90;;;;;;5061635;28;20517;-61
2023/07/06 00:10:43;;;;;;;7.20;2.22;;;15.10;99.90;;;;;;5059808;28;20485;-60
2023/07/06 00:13:10;;;;;;;8.68;2.08;;;15.20;99.90;;;;;;5073237;28;20484;-59
2023/07/06 00:15:36;;;;;;;;;;;15.20;99.90;;;;;;5072554;28;20021;-60
2023/07/06 00:18:03;;;;;;;7.13;2.15;;;15.20;99.90;;;;;;5068141;28;19954;-60
2023/07/06 00:20:33;;;;;;;10.00;2.42;;;15.20;99.90;;;;;;5065829;28;20040;-57
2023/07/06 00:23:01;;;;;;;7.05;2.20;;;15.20;99.90;;;;;;5064345;28;20385;-61
2023/07/06 00:25:27;;;;;;;7.10;2.15;;;15.20;99.90;;;;;;5061476;28;20045;-61
2023/07/06 00:27:58;;;;;;;11.70;2.58;;;15.20;99.90;;;;;;5072709;28;20330;-61
2023/07/06 00:30:40;;;;;;;6.30;2.58;;;15.20;99.90;;;;;;5071816;28;20419;-61
2023/07/06 00:33:07;;;;;;;8.50;2.83;;;15.20;99.90;;;;;;5071065;28;20013;-60
2023/07/06 00:35:33;;;;;;;10.50;2.20;;;15.20;99.90;;;;;;5063144;28;20386;-60
2023/07/06 00:38:00;;;;;;;12.27;2.58;;;15.20;99.90;;;;;;5052789;28;20027;-60
2023/07/06 00:40:31;;;;;;;5.53;2.50;;;15.20;99.90;;;;;;5064937;28;20036;-60
2023/07/06 00:42:57;;;;;;;7.45;2.38;;;15.20;99.90;;;;;;5073198;28;20431;-61
2023/07/06 00:45:24;;;;;;;7.90;2.50;;;15.20;99.90;;;;;;5069443;28;20477;-61
2023/07/06 00:47:56;;;;;;;7.60;1.90;;;15.20;99.90;;;;;;5072779;28;20048;-61
2023/07/06 00:50:25;;;;;;;6.30;2.03;;;15.20;99.90;;;;;;5070711;28;20439;-60
2023/07/06 00:53:14;;;;;;;6.50;2.25;;;15.20;99.90;;;;;;5068414;28;20024;-61
2023/07/06 00:55:40;;;;;;;9.80;1.90;;;15.20;99.90;;;;;;5071915;28;20072;-60
2023/07/06 00:58:23;;;;;;;5.85;2.08;;;15.20;99.90;;;;;;5072999;28;20021;-61
2023/07/06 01:00:54;;;;;;;7.80;2.20;;;15.10;99.90;;;;;;5070522;28;20028;-60
2023/07/06 01:03:22;;;;;;;11.02;2.25;;;15.10;99.90;;;;;;5070478;28;20025;-60
2023/07/06 01:05:51;;;;;;;5.85;2.15;;;15.20;99.90;;;;;;5071116;28;20038;-61
2023/07/06 01:08:20;;;;;;;8.15;2.03;;;15.20;99.90;;;;;;5072481;28;20428;-61
2023/07/06 01:10:48;;;;;;;7.82;2.20;;;15.20;99.90;;;;;;5054732;28;20431;-61
2023/07/06 01:13:14;;;;;;;2.15;1.77;;;15.20;99.90;;;;;;5053987;28;20400;-61
2023/07/06 01:15:58;;;;;;;7.22;2.42;;;15.30;99.90;;;;;;5066320;28;20085;-61
2023/07/06 01:18:41;;;;;;;7.85;2.50;;;15.30;99.90;;;;;;5070640;28;20066;-59
2023/07/06 01:21:40;;;;;;;9.93;2.22;;;15.30;99.90;;;;;;5069550;28;20025;-60
2023/07/06 01:24:34;;;;;;;5.13;2.22;;;15.30;99.90;;;;;;5072336;28;20087;-60
2023/07/06 01:27:38;;;;;;;7.20;1.92;;;15.30;99.90;;;;;;5066266;28;20044;-60
2023/07/06 01:30:18;;;;;;;13.75;2.45;;;15.40;99.90;;;;;;5069945;28;20071;-61
2023/07/06 01:32:51;;;;;;;7.70;1.70;;;15.30;99.90;;;;;;5074097;28;20041;-62
2023/07/06 01:35:46;;;;;;;5.95;1.70;;;15.30;99.90;;;;;;5075151;28;20066;-61
2023/07/06 01:38:13;;;;;;;6.78;2.33;;;15.40;99.90;;;;;;5073705;28;20028;-60
2023/07/06 01:40:40;;;;;;;7.57;1.63;;;15.40;99.90;;;;;;5073473;28;20024;-61
2023/07/06 01:43:06;;;;;;;8.73;2.40;;;15.30;99.90;;;;;;5073010;28;20021;-61
2023/07/06 01:45:33;;;;;;;7.07;1.85;;;15.40;99.90;;;;;;5075936;28;20035;-61
2023/07/06 01:48:04;;;;;;;13.13;1.70;;;15.40;99.90;;;;;;5076414;28;20538;-61
2023/07/06 01:50:52;;;;;;;4.60;2.15;;;15.40;99.90;;;;;;5072852;28;20439;-62
2023/07/06 01:53:31;;;;;;;7.38;1.75;;;15.40;99.90;;;;;;5072926;28;20024;-61
2023/07/06 01:56:04;;;;;;;3.25;2.35;;;15.40;99.90;;;;;;5075967;28;20101;-61
2023/07/06 01:58:50;;;;;;;9.40;2.05;;;15.40;99.90;;;;;;5060505;28;20056;-61
2023/07/06 02:01:20;;;;;;;6.30;2.75;;;15.50;99.90;;;;;;5063616;28;20450;-60
2023/07/06 02:03:47;;;;;;;3.15;1.67;;;15.50;99.90;;;;;;5069201;28;20489;-62
2023/07/06 02:06:13;;;;;;;6.53;1.73;;;15.50;99.90;;;;;;5075674;28;20507;-60
2023/07/06 02:08:42;;;;;;;5.90;1.70;;;15.50;99.90;;;;;;5073504;28;20027;-61
2023/07/06 02:11:13;;;;;;;7.75;2.00;;;15.40;99.90;;;;;;5075602;28;20108;-61
2023/07/06 02:13:39;;;;;;;11.02;1.80;;;15.40;99.90;;;;;;5072544;28;20032;-60
2023/07/06 02:16:05;;;;;;;6.25;1.73;;;15.40;99.90;;;;;;5071982;28;20477;-58
2023/07/06 02:18:33;;;;;;;2.70;1.25;;;15.40;99.90;;;;;;5067931;28;20089;-61
2023/07/06 02:21:02;;;;;;;4.78;2.38;;;15.30;99.90;;;;;;5055432;28;20116;-68
2023/07/06 02:23:32;;;;;;;4.47;1.52;;;15.30;99.90;;;;;;5065012;28;20500;-60
2023/07/06 02:25:58;;;;;;;7.00;1.95;;;15.30;99.90;;;;;;5074494;28;20032;-62
2023/07/06 02:28:24;;;;;;;5.85;1.45;;;15.30;99.90;;;;;;5071065;28;20055;-60
2023/07/06 02:30:52;;;;;;;4.72;1.75;;;15.30;99.90;;;;;;5073525;28;20025;-62
2023/07/06 02:33:19;;;;;;;6.75;2.17;;;15.30;99.90;;;;;;5073336;28;20472;-61
2023/07/06 02:35:48;;;;;;;5.28;2.08;;;15.30;99.90;;;;;;5072294;28;20041;-61
2023/07/06 02:38:19;;;;;;;6.95;1.67;;;15.30;99.90;;;;;;5072794;28;20029;-61
2023/07/06 02:40:46;;;;;;;11.15;2.13;;;15.30;99.90;;;;;;5072899;28;20082;-59
2023/07/06 02:43:12;;;;;;;3.58;2.05;;;15.30;99.90;;;;;;5073626;28;20545;-60
2023/07/06 02:45:38;;;;;;;6.90;2.33;;;15.30;99.90;;;;;;5085941;28;20110;-61
2023/07/06 02:48:04;;;;;;;3.80;1.67;;;15.30;99.90;;;;;;5086275;28;20544;-61
2023/07/06 02:50:31;;;;;;;4.15;1.98;;;15.20;99.90;;;;;;5074656;28;20476;-61
2023/07/06 02:52:58;;;;;;;3.87;2.43;;;15.30;99.90;;;;;;5059652;28;20023;-62
2023/07/06 02:55:26;;;;;;;5.57;1.95;;;15.30;99.90;;;;;;5075179;28;20036;-61
2023/07/06 02:57:52;;;;;;;9.30;2.53;;;15.30;99.90;;;;;;5071673;28;20086;-61
2023/07/06 03:00:18;;;;;;;13.90;2.80;;;15.20;99.90;;;;;;5073229;28;20032;-61
2023/07/06 03:02:49;;;;;;;10.93;2.50;;;15.30;99.90;;;;;;5071025;28;20481;-61
2023/07/06 03:05:21;;;;;;;9.07;2.47;;;15.20;99.90;;;;;;5073925;28;20052;-61
2023/07/06 03:07:47;;;;;;;8.13;2.22;;;15.20;99.90;;;;;;5073297;28;20434;-60
2023/07/06 03:10:14;;;;;;;7.40;2.15;;;15.20;99.90;;;;;;5073985;28;20028;-61
2023/07/06 03:12:40;;;;;;;;;;;15.20;99.90;;;;;;5072194;28;20568;-61
2023/07/06 03:15:08;;;;;;;4.90;1.60;;;15.30;99.90;;;;;;5074419;28;19912;-61
2023/07/06 03:17:36;;;;;;;7.13;1.90;;;15.30;99.90;;;;;;5071664;28;20021;-61
2023/07/06 03:20:13;;;;;;;8.48;2.05;;;15.30;99.90;;;;;;5074168;28;20111;-62
2023/07/06 03:22:38;;;;;;;3.63;1.80;;;15.30;99.90;;;;;;5073422;28;20078;-62
2023/07/06 03:25:05;;;;;;;6.88;1.98;;;15.30;99.90;;;;;;5071068;28;20045;-61
2023/07/06 03:27:31;;;;;;;8.95;2.55;;;15.20;99.90;;;;;;5071055;28;20024;-61
2023/07/06 03:29:57;;;;;;;18.63;2.42;;;15.20;99.90;;;;;;5074157;28;20069;-62
2023/07/06 03:32:25;;;;;;;10.90;2.58;;;15.30;99.90;;;;;;5072523;28;20490;-64
2023/07/06 03:34:50;;;;;;;5.78;2.33;;;15.30;99.90;;;;;;5064072;28;20028;-62
2023/07/06 03:37:18;;;;;;;7.80;2.00;;;15.30;99.90;;;;;;5059877;28;20037;-61
2023/07/06 03:39:47;;;;;;;22.25;2.60;;;15.30;99.90;;;;;;5073585;28;20029;-61
2023/07/06 03:42:13;;;;;;;3.63;1.98;;;15.30;99.90;;;;;;5071262;28;20032;-61
2023/07/06 03:44:39;;;;;;;11.75;2.67;;;15.30;99.90;;;;;;5070413;28;20029;-62
2023/07/06 03:47:06;;;;;;;7.65;2.25;;;15.30;99.90;;;;;;5066429;28;20027;-59
2023/07/06 03:49:34;;;;;;;11.18;2.28;;;15.30;99.90;;;;;;5066146;28;20028;-61
2023/07/06 03:52:03;;;;;;;10.95;2.47;;;15.30;99.90;;;;;;5073716;28;20024;-61
2023/07/06 03:54:30;;;;;;;8.35;2.45;;;15.30;99.90;;;;;;5072537;28;20025;-60
2023/07/06 03:56:56;;;;;;;11.68;2.33;;;15.30;99.90;;;;;;5069913;28;20480;-60
2023/07/06 03:59:23;;;;;;;8.02;2.10;;;15.30;99.90;;;;;;5066569;28;20525;-61
2023/07/06 04:01:48;;;;;;;7.10;2.47;;;15.30;99.90;;;;;;5062284;28;20025;-61
2023/07/06 04:04:15;;;;;;;12.80;2.30;;;15.30;99.90;;;;;;5070124;28;20449;-61
2023/07/06 04:06:41;;;;;;;8.85;2.40;;;15.30;99.90;;;;;;5072589;28;20550;-60
2023/07/06 04:09:09;;;;;;;6.97;2.40;;;15.30;99.90;;;;;;5071579;28;20016;-61
2023/07/06 04:11:35;;;;;;;8.27;2.53;;;15.40;99.90;;;;;;5071426;28;20052;-61
2023/07/06 04:14:01;;;;;;;13.93;2.80;;;15.30;99.90;;;;;;5069230;28;20095;-61
2023/07/06 04:16:27;;;;;;;11.18;3.13;;;15.40;99.90;;;;;;5067607;28;20055;-63
2023/07/06 04:18:52;;;;;;;9.05;2.30;;;15.40;99.90;;;;;;5065492;28;20063;-61
2023/07/06 04:21:18;;;;;;;19.15;3.20;;;15.40;99.90;;;;;;5071672;28;20092;-62
2023/07/06 04:23:48;;;;;;;13.80;2.80;;;15.40;99.90;;;;;;5069844;28;20075;-61
2023/07/06 04:26:15;;;;;;;7.57;2.15;;;15.40;99.90;;;;;;5072918;28;20044;-61
2023/07/06 04:28:42;;;;;;;7.72;2.70;;;15.40;99.90;;;;;;5071861;28;20503;-61
2023/07/06 04:31:10;;;;;;;8.43;3.28;;;15.40;99.90;;;;;;5066789;28;20392;-62
2023/07/06 04:33:36;;;;;;;13.52;3.70;;;15.40;99.90;;;;;;5064950;28;20028;-67
2023/07/06 04:36:02;;;;;;;5.95;2.75;;;15.50;99.90;;;;;;5071376;28;20028;-62
2023/07/06 04:38:29;;;;;;;6.28;2.85;;;15.40;99.90;;;;;;5071516;28;20481;-61
2023/07/06 04:40:56;;;;;;;5.50;2.63;;;15.50;99.90;;;;;;5069777;28;20025;-61
2023/07/06 04:43:22;;;;;;;12.05;2.70;;;15.40;99.90;;;;;;5071816;28;20028;-59
2023/07/06 04:45:48;;;;;;;10.30;2.72;;;15.50;99.90;;;;;;5071006;28;20495;-61
2023/07/06 04:48:16;;;;;;;6.70;2.58;;;15.50;99.90;;;;;;5070788;28;20103;-61
2023/07/06 04:50:43;;;;;;;8.80;2.80;;;15.50;99.90;;;;;;5070669;28;20063;-59
2023/07/06 04:53:09;;;;;;;6.13;2.42;;;15.50;99.90;;;;;;5071967;28;20036;-61
2023/07/06 04:55:36;;;;;;;10.80;3.00;;;15.50;99.90;;;;;;5070090;28;20107;-61
2023/07/06 04:58:05;;;;;;;13.82;3.35;;;15.60;99.90;;;;;;5071402;28;20099;-62
2023/07/06 05:00:34;;;;;;;12.52;2.92;;;15.60;99.90;;;;;;5069013;28;20056;-61
2023/07/06 05:03:06;;;;;;;18.13;3.85;;;15.60;99.90;;;;;;5061477;28;20115;-61
2023/07/06 05:05:36;;;;;;;9.93;2.90;;;15.60;99.90;;;;;;5070737;28;20028;-61
2023/07/06 05:08:02;;;;;;;12.90;4.13;;;15.70;99.90;;;;;;5063071;28;20051;-64
2023/07/06 05:10:28;;;;;;;12.82;3.75;;;15.70;99.90;;;;;;5066544;28;20031;-62
2023/07/06 05:12:55;;;;;;;16.50;3.70;;;15.70;99.90;;;;;;5071013;28;20092;-60
2023/07/06 05:15:21;;;;;;;21.70;4.15;;;15.70;99.90;;;;;;5071358;28;20059;-60
2023/07/06 05:17:48;;;;;;;11.13;3.42;;;15.80;99.90;;;;;;5072823;28;20090;-61
2023/07/06 05:20:16;;;;;;;11.60;3.63;;;15.90;99.90;;;;;;5069462;28;20585;-60
2023/07/06 05:22:48;;;;;;;8.60;3.38;;;15.90;99.90;;;;;;5069134;28;20440;-61
2023/07/06 05:25:18;;;;;;;13.57;4.13;;;15.90;99.90;;;;;;5067259;28;20089;-61
2023/07/06 05:27:45;;;;;;;15.82;3.53;;;15.90;99.90;;;;;;5063661;28;20021;-61
2023/07/06 05:30:12;;;;;;;10.23;2.97;;;16.00;99.90;;;;;;5058270;28;20089;-62
2023/07/06 05:32:37;;;;;;;10.07;4.25;;;16.10;99.90;;;;;;5070753;28;20055;-61
2023/07/06 05:35:03;;;;;;;16.25;3.50;;;16.10;99.90;;;;;;5070965;28;20116;-61
2023/07/06 05:37:29;;;;;;;17.80;4.70;;;16.20;99.90;;;;;;5070254;28;20025;-62
2023/07/06 05:39:55;;;;;;;16.17;4.82;;;16.20;99.90;;;;;;5069658;28;20029;-61
2023/07/06 05:42:21;;;;;;;12.30;4.25;;;16.20;99.90;;;;;;5059239;28;20033;-56
2023/07/06 05:44:47;;;;;;;15.02;4.35;;;16.20;99.90;;;;;;5057230;28;20477;-58
2023/07/06 05:47:13;;;;;;;11.68;4.05;;;16.30;99.90;;;;;;5069921;28;20017;-57
2023/07/06 05:49:39;;;;;;;16.33;5.00;;;16.30;99.90;;;;;;5070956;28;20107;-64
2023/07/06 05:52:05;;;;;;;12.73;4.20;;;16.40;99.90;;;;;;5070948;28;20082;-58
2023/07/06 05:54:32;;;;;;;17.42;4.88;;;16.40;99.90;;;;;;5068663;28;20028;-58
2023/07/06 05:56:58;;;;;;;23.95;5.13;;;16.40;99.90;;;;;;5068950;28;20028;-57
2023/07/06 05:59:24;;;;;;;13.75;4.70;;;16.40;99.90;;;;;;5058601;28;20551;-56
2023/07/06 06:01:51;;;;;;;17.10;5.85;;;16.50;99.90;;;;;;5065478;28;20038;-57
2023/07/06 06:04:19;;;;;;;17.85;5.05;;;16.60;99.90;;;;;;5070046;28;20501;-57
2023/07/06 06:06:51;;;;;;;15.35;4.90;;;16.60;99.90;;;;;;5071154;28;20107;-49
2023/07/06 06:09:17;;;;;;;10.27;4.85;;;16.70;99.90;;;;;;5073724;28;20048;-57
2023/07/06 06:11:42;;;;;;;20.10;5.53;;;16.70;99.90;;;;;;5066886;28;20044;-56
2023/07/06 06:14:08;;;;;;;15.23;6.05;;;16.70;99.90;;;;;;5070222;28;20459;-56
2023/07/06 06:16:34;;;;;;;16.27;6.00;;;16.90;99.90;;;;;;5067385;28;20030;-56
2023/07/06 06:19:01;;;;;;;20.02;7.55;;;17.10;99.90;;;;;;5066544;28;20381;-56
2023/07/06 06:21:29;;;;;;;19.23;7.50;;;17.20;99.90;;;;;;5056166;28;20036;-57
2023/07/06 06:23:57;;;;;;;25.05;8.05;;;17.30;99.90;;;;;;5067654;28;20086;-56
2023/07/06 06:26:23;;;;;;;18.15;7.43;;;17.30;99.90;;;;;;5074485;28;20063;-57
2023/07/06 06:28:49;;;;;;;30.92;8.27;;;17.20;99.90;;;;;;5067275;28;20117;-57
2023/07/06 06:32:03;;;;;;;24.95;7.97;;;17.20;99.90;;;;;;5066371;28;20044;-57
2023/07/06 06:34:29;;;;;;;15.55;8.07;;;17.10;99.90;;;;;;5066667;28;20039;-57
2023/07/06 06:36:55;;;;;;;23.70;8.73;;;17.20;99.90;;;;;;5071936;28;20025;-56
2023/07/06 06:39:21;;;;;;;18.83;8.70;;;17.40;99.90;;;;;;5075443;28;20025;-55
2023/07/06 06:41:47;;;;;;;21.67;8.02;;;17.60;99.90;;;;;;5073816;28;20388;-55
2023/07/06 06:44:13;;;;;;;20.65;9.40;;;17.80;99.90;;;;;;5075078;28;20058;-57
2023/07/06 06:46:38;;;;;;;18.75;8.48;;;17.90;99.90;;;;;;5070184;28;20048;-58
2023/07/06 06:49:05;;;;;;;22.02;7.53;;;18.10;99.90;;;;;;5072508;28;20098;-58
2023/07/06 06:51:30;;;;;;;17.27;7.72;;;18.10;99.90;;;;;;5069116;28;20420;-70
2023/07/06 06:53:56;;;;;;;14.98;7.65;;;18.00;99.90;;;;;;5071616;28;20157;-53
2023/07/06 06:56:25;;;;;;;19.00;7.32;;;18.00;99.90;;;;;;5070376;28;20060;-50
2023/07/06 06:58:52;;;;;;;18.00;8.18;;;17.80;99.90;;;;;;5074666;28;20028;-61
2023/07/06 07:01:18;;;;;;;17.13;7.80;;;18.30;99.90;;;;;;5074802;28;20032;-60
2023/07/06 07:03:45;;;;;;;13.45;7.15;;;18.70;99.90;;;;;;5071606;28;20290;-61
2023/07/06 07:06:12;;;;;;;11.07;5.82;;;18.60;99.90;;;;;;5069361;28;20388;-62
2023/07/06 07:08:43;;;;;;;17.17;7.35;;;18.90;99.90;;;;;;5065441;28;20056;-60
2023/07/06 07:11:10;;;;;;;16.25;6.63;;;18.80;99.90;;;;;;5070140;28;20106;-61
2023/07/06 07:13:37;;;;;;;21.42;7.03;;;18.90;99.90;;;;;;5069465;28;20480;-61
2023/07/06 07:16:05;;;;;;;14.52;6.72;;;19.20;99.90;;;;;;5070451;28;20021;-63
2023/07/06 07:18:31;;;;;;;12.57;5.35;;;19.30;99.90;;;;;;5069997;28;20032;-62
2023/07/06 07:20:57;;;;;;;14.07;6.28;;;19.10;99.90;;;;;;5066277;28;20024;-61
2023/07/06 07:23:24;;;;;;;16.02;6.07;;;19.50;99.90;;;;;;5069030;28;20028;-61
2023/07/06 07:25:50;;;;;;;10.48;4.60;;;20.90;99.90;;;;;;5065349;28;20045;-63
2023/07/06 07:28:17;;;;;;;11.70;5.73;;;21.80;99.90;;;;;;5073344;28;20029;-60
2023/07/06 07:30:46;;;;;;;14.38;5.35;;;22.20;99.90;;;;;;5073809;28;20023;-60
2023/07/06 07:33:12;;;;;;;12.15;5.70;;;21.40;99.90;;;;;;5068576;28;20038;-62
2023/07/06 07:35:41;;;;;;;13.13;5.47;;;20.70;99.90;;;;;;5065348;28;20424;-62
2023/07/06 07:38:07;;;;;;;12.30;5.80;;;20.10;99.90;;;;;;5072561;28;20025;-65
2023/07/06 07:40:34;;;;;;;9.80;4.35;;;19.70;99.90;;;;;;5066207;28;20028;-62
2023/07/06 07:42:59;;;;;;;9.98;4.68;;;19.50;99.90;;;;;;5055150;28;20537;-61
2023/07/06 07:45:25;;;;;;;12.52;5.22;;;20.10;99.90;;;;;;5064486;28;20115;-62
2023/07/06 07:47:51;;;;;;;13.88;5.15;;;20.90;99.90;;;;;;5062302;28;20099;-62
2023/07/06 07:50:17;;;;;;;10.52;5.03;;;21.10;99.90;;;;;;5059747;28;20016;-59
2023/07/06 07:52:43;;;;;;;13.50;4.45;;;21.00;99.90;;;;;;5063952;28;20393;-66
2023/07/06 07:55:10;;;;;;;9.73;4.35;;;20.80;99.90;;;;;;5066006;28;20028;-59
2023/07/06 07:57:37;;;;;;;7.93;3.95;;;20.70;99.90;;;;;;5064633;28;20054;-62
2023/07/06 08:00:06;;;;;;;13.32;5.88;;;20.50;99.90;;;;;;5063158;28;20043;-62
2023/07/06 08:02:32;;;;;;;10.52;4.32;;;20.30;99.90;;;;;;5064622;28;20101;-62
2023/07/06 08:05:01;;;;;;;8.57;4.43;;;20.10;99.90;;;;;;5068315;28;20032;-61
2023/07/06 08:07:27;;;;;;;9.32;4.45;;;19.90;99.90;;;;;;5068580;28;20419;-62
2023/07/06 08:09:53;;;;;;;10.60;5.00;;;19.80;99.90;;;;;;5071186;28;20056;-62
2023/07/06 08:12:20;;;;;;;7.30;3.90;;;19.80;99.90;;;;;;5067193;28;20065;-64
2023/07/06 08:14:45;;;;;;;5.03;3.92;;;20.00;99.90;;;;;;5070214;28;20100;-64
2023/07/06 08:17:12;;;;;;;8.55;4.65;;;20.10;99.90;;;;;;5066494;28;20124;-62
2023/07/06 08:19:38;;;;;;;5.27;2.87;;;20.30;99.90;;;;;;5072220;28;20017;-62
2023/07/06 08:22:04;;;;;;;13.30;4.35;;;20.50;99.90;;;;;;5065311;28;20032;-64
2023/07/06 08:24:30;;;;;;;13.77;3.88;;;20.90;99.90;;;;;;5053195;28;20096;-62
2023/07/06 08:26:57;;;;;;;5.57;3.17;;;21.20;99.90;;;;;;5060325;28;20180;-63
2023/07/06 08:29:23;;;;;;;;;;;21.70;99.90;;;;;;5072396;28;20544;-63
2023/07/06 08:31:49;;;;;;;8.80;2.67;;;22.10;99.90;;;;;;5068028;28;19999;-63
2023/07/06 08:34:16;;;;;;;9.07;3.13;;;22.20;99.90;;;;;;5069685;28;20021;-62
2023/07/06 08:36:43;;;;;;;9.75;3.22;;;22.50;99.90;;;;;;5060579;28;20040;-62
2023/07/06 08:39:09;;;;;;;10.60;3.13;;;22.70;99.90;;;;;;5061511;28;20044;-62
2023/07/06 08:41:42;;;;;;;6.35;2.88;;;23.00;99.90;;;;;;5071374;28;20020;-63
2023/07/06 08:44:12;;;;;;;5.75;2.75;;;22.90;99.90;;;;;;5071508;28;20032;-63
2023/07/06 08:46:45;;;;;;;10.50;3.72;;;22.50;99.90;;;;;;5066357;28;20032;-63
2023/07/06 08:49:31;;;;;;;7.72;2.80;;;22.30;99.90;;;;;;5067020;28;20595;-63
2023/07/06 08:52:05;;;;;;;11.73;3.43;;;22.10;99.90;;;;;;5052839;28;20087;-60
2023/07/06 08:54:39;;;;;;;3.75;2.50;;;22.00;99.90;;;;;;5052459;28;20624;-61
2023/07/06 08:57:15;;;;;;;6.47;2.75;;;21.70;99.90;;;;;;5065152;28;20020;-60
2023/07/06 08:59:46;;;;;;;3.60;2.17;;;21.40;99.90;;;;;;5072416;28;20078;-58
2023/07/06 09:02:28;;;;;;;8.07;2.80;;;21.50;99.90;;;;;;5071856;28;20021;-59
2023/07/06 09:04:56;;;;;;;7.38;2.40;;;21.90;99.90;;;;;;5071655;28;20016;-56
2023/07/06 09:07:34;;;;;;;6.45;2.65;;;22.50;99.90;;;;;;5072923;28;20098;-60
2023/07/06 09:10:01;;;;;;;8.95;2.50;;;23.10;99.90;;;;;;5062279;28;20547;-60
2023/07/06 09:12:36;;;;;;;5.90;2.72;;;23.30;99.90;;;;;;5069844;28;20020;-60
2023/07/06 09:15:03;;;;;;;7.03;2.55;;;22.90;99.90;;;;;;5069661;28;20486;-59
2023/07/06 09:17:29;;;;;;;;;;;22.70;99.90;;;;;;5059887;28;20098;-59
2023/07/06 09:19:56;;;;;;;5.97;2.47;;;22.30;99.90;;;;;;5071645;28;20372;-60
2023/07/06 09:22:23;;;;;;;11.00;2.47;;;22.00;99.90;;;;;;5063370;28;20481;-58
2023/07/06 09:24:50;;;;;;;3.28;1.98;;;21.80;99.90;;;;;;5072132;28;20501;-58
2023/07/06 09:27:19;;;;;;;6.35;2.65;;;21.80;99.90;;;;;;5072458;28;20059;-57
2023/07/06 09:29:55;;;;;;;3.45;2.45;;;21.90;99.90;;;;;;5070573;28;20064;-61
2023/07/06 09:32:21;;;;;;;6.03;2.08;;;21.80;99.90;;;;;;5066347;28;20021;-60
2023/07/06 09:34:55;;;;;;;6.77;2.67;;;21.60;99.90;;;;;;5068871;28;20453;-59
2023/07/06 09:37:21;;;;;;;7.35;2.42;;;21.40;99.90;;;;;;5063900;28;20354;-60
2023/07/06 09:40:03;;;;;;;6.75;2.28;;;21.10;99.90;;;;;;5064004;28;20032;-68
2023/07/06 09:42:30;;;;;;;6.50;2.60;;;20.90;99.90;;;;;;5069213;28;20032;-59
2023/07/06 09:44:57;;;;;;;4.15;2.13;;;20.70;99.90;;;;;;5070833;28;20059;-61
2023/07/06 09:47:23;;;;;;;3.92;2.20;;;20.50;99.90;;;;;;5075900;28;20583;-61
2023/07/06 09:50:04;;;;;;;7.43;2.70;;;20.40;99.90;;;;;;5076691;28;20100;-58
2023/07/06 09:52:41;;;;;;;2.92;2.08;;;20.20;99.90;;;;;;5071405;28;20039;-60
2023/07/06 09:55:09;;;;;;;4.55;2.50;;;20.00;99.90;;;;;;5054476;28;20021;-61
2023/07/06 09:57:35;;;;;;;5.63;2.50;;;19.90;99.90;;;;;;5059089;28;20083;-61
2023/07/06 10:00:03;;;;;;;6.22;2.03;;;19.90;99.90;;;;;;5073613;28;20016;-60
2023/07/06 10:02:47;;;;;;;11.35;3.10;;;20.00;99.90;;;;;;5075887;28;20548;-58
2023/07/06 10:05:52;;;;;;;6.63;3.05;;;20.00;99.90;;;;;;5075931;28;20035;-60
2023/07/06 10:08:29;;;;;;;8.05;2.80;;;20.00;99.90;;;;;;5076721;28;20029;-62
2023/07/06 10:11:34;;;;;;;5.82;2.88;;;19.90;99.90;;;;;;5068701;28;20090;-61
2023/07/06 10:14:25;;;;;;;8.25;2.95;;;19.90;99.90;;;;;;5065264;28;20029;-60
2023/07/06 10:17:02;;;;;;;5.88;2.60;;;19.80;99.90;;;;;;5075483;28;20039;-59
2023/07/06 10:19:37;;;;;;;10.02;3.08;;;19.70;99.90;;;;;;5075644;28;20024;-59
2023/07/06 10:22:06;;;;;;;8.30;2.50;;;19.50;99.90;;;;;;5075588;28;20058;-59
2023/07/06 10:24:55;;;;;;;2.55;2.15;;;19.30;99.90;;;;;;5071611;28;20032;-59
2023/07/06 10:27:29;;;;;;;2.42;1.80;;;19.10;99.90;;;;;;5069035;28;20029;-58
2023/07/06 10:30:01;;;;;;;11.48;2.35;;;19.00;99.90;;;;;;5066289;28;20550;-60
2023/07/06 10:32:34;;;;;;;3.38;1.80;;;18.90;99.90;;;;;;5074118;28;20472;-59
2023/07/06 10:35:19;;;;;;;12.60;3.10;;;19.00;99.90;;;;;;5055603;28;20021;-60
2023/07/06 10:37:46;;;;;;;4.57;1.60;;;19.10;99.90;;;;;;5064178;28;20477;-60
2023/07/06 10:40:24;;;;;;;5.15;2.08;;;19.10;99.90;;;;;;5074814;28;20107;-52
2023/07/06 10:43:13;;;;;;;3.00;1.88;;;19.30;99.90;;;;;;5075435;28;20029;-59
2023/07/06 10:45:43;;;;;;;9.23;1.90;;;19.60;99.90;;;;;;5073963;28;20089;-59
2023/07/06 10:48:25;;;;;;;5.50;2.28;;;20.00;99.90;;;;;;5067617;28;20029;-59
2023/07/06 10:51:04;;;;;;;14.40;2.10;;;20.30;99.90;;;;;;5082813;28;20067;-59
2023/07/06 10:53:42;;;;;;;5.20;1.90;;;20.50;99.90;;;;;;5073396;28;20536;-58
2023/07/06 10:56:11;;;;;;;9.15;1.80;;;20.60;99.90;;;;;;5072635;28;20362;-58
2023/07/06 10:58:45;;;;;;;6.28;2.08;;;20.50;99.90;;;;;;5073129;28;20090;-59
2023/07/06 11:01:19;;;;;;;3.75;2.30;;;20.50;99.90;;;;;;5063489;28;20028;-59
2023/07/06 11:03:45;;;;;;;7.80;2.00;;;20.60;99.90;;;;;;5072162;28;20029;-58
2023/07/06 11:06:16;;;;;;;3.05;1.38;;;20.90;99.90;;;;;;5062867;28;20025;-57
2023/07/06 11:09:08;;;;;;;4.50;1.10;;;21.20;99.90;;;;;;5074655;28;20027;-49
2023/07/06 11:11:39;;;;;;;1.35;1.13;;;21.70;99.90;;;;;;5074580;28;20028;-56
2023/07/06 11:14:33;;;;;;;3.05;0.85;;;21.70;99.90;;;;;;5072383;28;20032;-59
2023/07/06 11:16:58;;;;;;;5.43;1.00;;;21.60;99.90;;;;;;5066553;28;20036;-58
2023/07/06 11:19:30;;;;;;;5.03;1.80;;;21.50;99.90;;;;;;5072425;28;20178;-59
2023/07/06 11:22:03;;;;;;;3.75;1.15;;;21.40;99.90;;;;;;5068720;28;20033;-59
2023/07/06 11:24:34;;;;;;;7.75;1.27;;;21.30;99.90;;;;;;5074575;28;20527;-59
2023/07/06 11:27:12;;;;;;;3.17;1.10;;;21.20;99.90;;;;;;5074055;28;20511;-55
2023/07/06 11:29:40;;;;;;;6.55;2.00;;;21.20;99.90;;;;;;5074200;28;20024;-59
2023/07/06 11:32:26;;;;;;;3.83;0.93;;;21.30;99.90;;;;;;5074323;28;20464;-56
2023/07/06 11:35:11;;;;;;;3.97;1.13;;;21.30;99.90;;;;;;5073196;28;20032;-58
2023/07/06 11:37:49;;;;;;;2.42;0.70;;;21.50;99.90;;;;;;5073896;28;20024;-57
2023/07/06 11:40:41;;;;;;;4.05;0.80;;;21.50;99.90;;;;;;5085077;28;20074;-59
2023/07/06 11:43:27;;;;;;;2.60;0.90;;;21.80;99.90;;;;;;5074028;28;20021;-55
2023/07/06 11:46:25;;;;;;;7.57;1.10;;;22.10;99.90;;;;;;5073543;28;20049;-57
2023/07/06 11:48:57;;;;;;;2.95;1.10;;;22.00;99.90;;;;;;5073908;28;20048;-58
2023/07/06 11:51:23;;;;;;;2.03;1.05;;;21.70;99.90;;;;;;5074067;28;20454;-59
2023/07/06 11:53:57;;;;;;;3.33;1.27;;;21.40;99.90;;;;;;5072740;28;20066;-59
2023/07/06 11:59:37;;;;;;;3.83;0.98;;;21.40;99.90;;;;;;5053965;28;20044;-59
2023/07/06 12:02:17;;;;;;;1.70;0.70;;;21.80;99.90;;;;;;5053681;28;20064;-58
2023/07/06 12:04:46;;;;;;;0.80;0.75;;;22.40;99.90;;;;;;5053046;28;20442;-61
2023/07/06 12:07:27;;;;;;;2.65;0.70;;;22.70;99.90;;;;;;5053449;28;20071;-56
2023/07/06 12:09:53;;;;;;;4.07;0.45;;;22.80;99.90;;;;;;5064451;28;20032;-62
2023/07/06 12:12:23;;;;;;;2.65;0.50;;;22.70;99.90;;;;;;5072353;28;20017;-56
2023/07/06 12:14:51;;;;;;;0.85;0.77;;;22.40;99.90;;;;;;5073321;28;20081;-59
2023/07/06 12:17:17;;;;;;;0.85;0.57;;;22.20;99.90;;;;;;5073266;28;20024;-60
2023/07/06 12:19:43;;;;;;;2.42;0.70;;;22.40;99.90;;;;;;5073169;28;20021;-59
2023/07/06 12:22:15;;;;;;;2.45;0.85;;;22.50;99.90;;;;;;5072251;28;20023;-57
2023/07/06 12:24:42;;;;;;;2.03;0.80;;;22.50;99.90;;;;;;5073411;28;20061;-58
2023/07/06 12:27:16;;;;;;;1.90;0.73;;;22.50;99.90;;;;;;5070650;28;20128;-58
2023/07/06 12:29:45;;;;;;;1.23;0.65;;;22.20;99.90;;;;;;5065358;28;20016;-59
2023/07/06 12:32:13;;;;;;;2.25;0.80;;;21.80;99.90;;;;;;5053058;28;20021;-59
2023/07/06 12:34:40;;;;;;;1.42;0.68;;;21.90;99.90;;;;;;5053034;28;20024;-59
2023/07/06 12:37:17;;;;;;;7.60;1.02;;;22.30;99.90;;;;;;5066729;28;20029;-59
2023/07/06 12:39:45;;;;;;;0.80;0.40;;;22.60;99.90;;;;;;5073010;28;20028;-59
2023/07/06 12:42:13;;;;;;;2.60;0.90;;;22.80;99.60;;;;;;5071602;28;20031;-59
2023/07/06 12:44:43;;;;;;;;;;;22.70;99.90;;;;;;5072583;28;20032;-56
2023/07/06 12:47:37;;;;;;;1.45;0.65;;;22.80;99.90;;;;;;5071770;28;19916;-60
2023/07/06 12:50:05;;;;;;;4.03;0.65;;;23.00;99.50;;;;;;5072865;28;20100;-58
2023/07/06 12:52:33;;;;;;;1.38;0.63;;;23.10;99.90;;;;;;5073081;28;20456;-61
2023/07/06 12:54:59;;;;;;;1.25;0.80;;;23.00;99.90;;;;;;5072573;28;20095;-60
2023/07/06 12:57:31;;;;;;;0.93;0.75;;;22.80;99.80;;;;;;5068838;28;20048;-59
2023/07/06 13:00:08;;;;;;;2.03;0.93;;;22.90;99.90;;;;;;5063452;28;20021;-53
2023/07/06 13:02:37;;;;;;;1.95;0.82;;;23.10;99.90;;;;;;5073084;28;20025;-60
2023/07/06 13:05:22;;;;;;;1.15;0.50;;;23.10;99.40;;;;;;5071194;28;20020;-60